Time;durP1;ratioP1;P1;durP2;ratioP2;P2;SDS_P1;SDS_P2;PMS_P1;PMS_P2;Temp;Humidity;BMP_temperature;BMP_pressure;BME280_temperature;BME280_humidity;BME280_pressure;Samples;Min_cycle;Max_cycle;Signal;HPM_P1;HPM_P2
2023/12/30 00:02:43;;;;;;;1.40;0.82;;;;;;;;;;6221744;28;20050;-84
2023/12/30 00:05:44;;;;;;;0.45;0.40;;;;;;;;;;6207055;28;20046;-85
2023/12/30 00:08:46;;;;;;;1.58;0.65;;;;;;;;;;6187758;28;20515;-86
2023/12/30 00:11:51;;;;;;;2.83;0.77;;;;;;;;;;6199738;28;20065;-85
2023/12/30 00:14:53;;;;;;;2.22;0.68;;;;;;;;;;6198229;28;20049;-85
2023/12/30 00:17:55;;;;;;;2.53;0.90;;;;;;;;;;6197373;28;20149;-85
2023/12/30 00:20:58;;;;;;;1.08;0.60;;;;;;;;;;6190610;28;20106;-85
2023/12/30 00:24:00;;;;;;;0.75;0.40;;;;;;;;;;6224615;28;20034;-85
2023/12/30 00:27:01;;;;;;;2.80;0.60;;;;;;;;;;6203261;28;20068;-86
2023/12/30 00:30:04;;;;;;;1.88;0.90;;;;;;;;;;6204501;28;20050;-85
2023/12/30 00:33:05;;;;;;;2.07;0.80;;;;;;;;;;6175833;28;20053;-85
2023/12/30 00:36:08;;;;;;;1.70;0.63;;;;;;;;;;6202821;28;20046;-84
2023/12/30 00:39:10;;;;;;;2.15;1.27;;;;;;;;;;6200469;28;20038;-85
2023/12/30 00:42:12;;;;;;;1.25;0.80;;;;;;;;;;6187604;28;20475;-86
2023/12/30 00:45:16;;;;;;;1.67;0.60;;;;;;;;;;6209631;28;20046;-85
2023/12/30 00:48:18;;;;;;;1.60;0.50;;;;;;;;;;6182663;28;20153;-85
2023/12/30 00:51:20;;;;;;;12.32;4.25;;;;;;;;;;6202101;28;20443;-85
2023/12/30 00:54:22;;;;;;;3.50;2.03;;;;;;;;;;6196863;28;20079;-86
2023/12/30 00:57:23;;;;;;;3.33;0.90;;;;;;;;;;6199668;28;20072;-85
2023/12/30 01:00:25;;;;;;;1.80;0.90;;;;;;;;;;6203425;28;20050;-86
2023/12/30 01:03:27;;;;;;;4.00;0.90;;;;;;;;;;6203004;28;20437;-85
2023/12/30 01:06:29;;;;;;;4.10;1.15;;;;;;;;;;6186520;28;20104;-85
2023/12/30 01:09:31;;;;;;;3.35;0.95;;;;;;;;;;6197720;28;20041;-85
2023/12/30 01:12:33;;;;;;;3.33;0.80;;;;;;;;;;6191645;28;20054;-85
2023/12/30 01:15:35;;;;;;;3.65;1.17;;;;;;;;;;6194176;28;20049;-85
2023/12/30 01:18:37;;;;;;;2.55;0.98;;;;;;;;;;6200498;28;20523;-85
2023/12/30 01:21:39;;;;;;;5.25;0.93;;;;;;;;;;6207317;28;20504;-85
2023/12/30 01:24:41;;;;;;;2.97;1.08;;;;;;;;;;6190724;28;20539;-85
2023/12/30 01:27:43;;;;;;;3.55;1.10;;;;;;;;;;6210399;28;20052;-85
2023/12/30 01:30:44;;;;;;;7.05;0.93;;;;;;;;;;6204447;28;20137;-85
2023/12/30 01:33:46;;;;;;;2.53;0.77;;;;;;;;;;6196462;28;20050;-85
2023/12/30 01:36:51;;;;;;;5.18;1.85;;;;;;;;;;6193557;28;20486;-85
2023/12/30 01:39:55;;;;;;;4.80;0.90;;;;;;;;;;6204503;28;20057;-86
2023/12/30 01:42:57;;;;;;;2.33;0.90;;;;;;;;;;6206022;28;20048;-86
2023/12/30 01:46:04;;;;;;;6.57;1.38;;;;;;;;;;6215028;28;20052;-85
2023/12/30 01:49:06;;;;;;;4.47;0.85;;;;;;;;;;6176736;28;20043;-84
2023/12/30 01:52:08;;;;;;;3.47;1.00;;;;;;;;;;6187730;28;20064;-85
2023/12/30 01:55:11;;;;;;;1.73;0.75;;;;;;;;;;6203174;28;20734;-85
2023/12/30 01:58:13;;;;;;;4.10;0.90;;;;;;;;;;6185142;28;20523;-85
2023/12/30 02:01:15;;;;;;;4.72;1.30;;;;;;;;;;6220477;28;20034;-85
2023/12/30 02:04:17;;;;;;;5.20;0.97;;;;;;;;;;6223232;28;20424;-86
2023/12/30 02:07:19;;;;;;;5.65;1.33;;;;;;;;;;6226432;28;20052;-85
2023/12/30 02:10:21;;;;;;;4.60;1.02;;;;;;;;;;6229960;28;20047;-84
2023/12/30 02:13:23;;;;;;;2.60;1.00;;;;;;;;;;6215508;28;20400;-85
2023/12/30 02:16:25;;;;;;;2.47;1.00;;;;;;;;;;6209024;28;20049;-84
2023/12/30 02:19:27;;;;;;;4.78;1.10;;;;;;;;;;6194762;28;20524;-86
2023/12/30 02:22:29;;;;;;;7.22;1.00;;;;;;;;;;6189221;28;20505;-85
2023/12/30 02:25:31;;;;;;;5.05;1.40;;;;;;;;;;6197426;28;20054;-85
2023/12/30 02:28:32;;;;;;;3.97;1.67;;;;;;;;;;6200617;28;20416;-85
2023/12/30 02:31:38;;;;;;;4.55;0.80;;;;;;;;;;6209414;28;20042;-85
2023/12/30 02:34:42;;;;;;;5.75;0.90;;;;;;;;;;6188922;28;20038;-85
2023/12/30 02:37:45;;;;;;;4.17;0.93;;;;;;;;;;6176832;28;20065;-85
2023/12/30 02:40:47;;;;;;;2.42;1.25;;;;;;;;;;6199784;28;20153;-86
2023/12/30 02:43:57;;;;;;;4.00;1.30;;;;;;;;;;6189282;28;20073;-85
2023/12/30 02:46:59;;;;;;;6.15;1.23;;;;;;;;;;6208143;28;20126;-85
2023/12/30 02:50:01;;;;;;;3.90;1.15;;;;;;;;;;6204427;28;20046;-85
2023/12/30 02:53:03;;;;;;;4.35;1.20;;;;;;;;;;6187099;28;20065;-85
2023/12/30 02:56:05;;;;;;;1.80;0.90;;;;;;;;;;6187682;28;20065;-85
2023/12/30 02:59:08;;;;;;;7.25;1.15;;;;;;;;;;6206517;28;20162;-85
2023/12/30 03:02:10;;;;;;;7.88;1.38;;;;;;;;;;6202136;28;20041;-85
2023/12/30 03:05:12;;;;;;;3.53;0.93;;;;;;;;;;6183372;28;20177;-85
2023/12/30 03:08:14;;;;;;;4.22;0.85;;;;;;;;;;6190259;28;20185;-85
2023/12/30 03:11:17;;;;;;;7.45;1.10;;;;;;;;;;6194034;28;20531;-85
2023/12/30 03:14:19;;;;;;;6.20;1.02;;;;;;;;;;6207565;28;20265;-85
2023/12/30 03:17:21;;;;;;;3.17;1.15;;;;;;;;;;6185584;28;20077;-85
2023/12/30 03:20:22;;;;;;;6.10;1.10;;;;;;;;;;6187854;28;20499;-86
2023/12/30 03:23:25;;;;;;;6.07;1.40;;;;;;;;;;6196418;28;20208;-85
2023/12/30 03:26:27;;;;;;;4.80;0.90;;;;;;;;;;6190059;28;20046;-85
2023/12/30 03:29:29;;;;;;;5.07;1.10;;;;;;;;;;6198743;28;20085;-85
2023/12/30 03:32:31;;;;;;;4.82;0.95;;;;;;;;;;6203929;28;20053;-85
2023/12/30 03:35:33;;;;;;;5.18;1.40;;;;;;;;;;6201962;28;20054;-85
2023/12/30 03:38:35;;;;;;;10.25;1.55;;;;;;;;;;6201411;28;20049;-85
2023/12/30 03:41:37;;;;;;;5.90;1.13;;;;;;;;;;6189314;28;20415;-85
2023/12/30 03:44:39;;;;;;;4.03;1.23;;;;;;;;;;6200123;28;20041;-85
2023/12/30 03:47:42;;;;;;;3.15;1.13;;;;;;;;;;6184489;28;20050;-86
2023/12/30 03:50:43;;;;;;;2.97;1.00;;;;;;;;;;6203823;28;20049;-84
2023/12/30 03:53:45;;;;;;;5.88;1.13;;;;;;;;;;6224022;28;20056;-84
2023/12/30 03:56:48;;;;;;;9.93;1.20;;;;;;;;;;6238027;28;20065;-84
2023/12/30 03:59:49;;;;;;;5.72;1.10;;;;;;;;;;6222740;28;20137;-85
2023/12/30 04:02:51;;;;;;;6.45;1.05;;;;;;;;;;6222314;28;20041;-85
2023/12/30 04:05:53;;;;;;;9.77;1.33;;;;;;;;;;6211416;28;20074;-85
2023/12/30 04:08:55;;;;;;;6.13;1.00;;;;;;;;;;6217481;28;20041;-85
2023/12/30 04:11:57;;;;;;;2.45;1.10;;;;;;;;;;6208324;28;20093;-85
2023/12/30 04:14:59;;;;;;;1.75;0.90;;;;;;;;;;6213813;28;20034;-87
2023/12/30 04:18:01;;;;;;;4.15;0.80;;;;;;;;;;6222669;28;20049;-86
2023/12/30 04:21:03;;;;;;;5.13;0.82;;;;;;;;;;6200170;28;20053;-86
2023/12/30 04:24:05;;;;;;;4.70;1.33;;;;;;;;;;6215377;28;20634;-85
2023/12/30 04:27:08;;;;;;;4.30;0.90;;;;;;;;;;6210007;28;20150;-86
2023/12/30 04:30:10;;;;;;;9.90;2.53;;;;;;;;;;6207050;28;20038;-86
2023/12/30 04:33:12;;;;;;;3.65;1.02;;;;;;;;;;6218761;28;20432;-86
2023/12/30 04:36:14;;;;;;;4.85;1.00;;;;;;;;;;6207140;28;20041;-85
2023/12/30 04:39:16;;;;;;;5.25;1.10;;;;;;;;;;6206707;28;20073;-85
2023/12/30 04:42:19;;;;;;;3.60;0.85;;;;;;;;;;6207910;28;20042;-85
2023/12/30 04:45:21;;;;;;;6.47;0.95;;;;;;;;;;6209918;28;20049;-85
2023/12/30 04:48:23;;;;;;;10.68;0.90;;;;;;;;;;6215983;28;20046;-87
2023/12/30 04:51:25;;;;;;;3.13;0.90;;;;;;;;;;6242350;28;20056;-85
2023/12/30 04:54:30;;;;;;;5.53;1.42;;;;;;;;;;6226179;28;20651;-85
2023/12/30 04:57:32;;;;;;;4.93;0.88;;;;;;;;;;6215068;28;20088;-86
2023/12/30 05:00:34;;;;;;;8.05;0.80;;;;;;;;;;6202186;28;20062;-85
2023/12/30 05:03:36;;;;;;;5.03;0.80;;;;;;;;;;6217382;28;20045;-85
2023/12/30 05:06:38;;;;;;;4.50;0.93;;;;;;;;;;6221409;28;20483;-85
2023/12/30 05:09:40;;;;;;;2.15;0.82;;;;;;;;;;6215330;28;20037;-86
2023/12/30 05:12:41;;;;;;;5.43;0.88;;;;;;;;;;6228154;28;20045;-88
2023/12/30 05:15:43;;;;;;;4.15;0.90;;;;;;;;;;6225581;28;20050;-84
2023/12/30 05:18:46;;;;;;;2.83;0.82;;;;;;;;;;6208453;28;20072;-85
2023/12/30 05:21:51;;;;;;;4.57;0.95;;;;;;;;;;6220899;28;20339;-85
2023/12/30 05:24:54;;;;;;;6.28;0.80;;;;;;;;;;6235280;28;20048;-85
2023/12/30 05:27:57;;;;;;;4.85;1.10;;;;;;;;;;6200639;28;20068;-85
2023/12/30 05:30:59;;;;;;;6.30;1.30;;;;;;;;;;6210273;28;20596;-85
2023/12/30 05:34:01;;;;;;;9.70;1.40;;;;;;;;;;6226471;28;20071;-85
2023/12/30 05:37:03;;;;;;;3.25;0.90;;;;;;;;;;6207736;28;20042;-85
2023/12/30 05:40:06;;;;;;;7.38;1.23;;;;;;;;;;6231357;28;20061;-86
2023/12/30 05:43:08;;;;;;;5.65;1.27;;;;;;;;;;6242894;28;20045;-86
2023/12/30 05:46:16;;;;;;;5.28;1.13;;;;;;;;;;6225670;28;20072;-85
2023/12/30 05:49:18;;;;;;;5.47;1.02;;;;;;;;;;6212367;28;20071;-85
2023/12/30 05:52:20;;;;;;;6.95;1.38;;;;;;;;;;6219145;28;20052;-85
2023/12/30 05:55:22;;;;;;;7.38;2.00;;;;;;;;;;6220335;28;20124;-85
2023/12/30 05:58:24;;;;;;;5.38;1.30;;;;;;;;;;6199320;28;20046;-85
2023/12/30 06:01:26;;;;;;;8.25;1.77;;;;;;;;;;6209274;28;20050;-85
2023/12/30 06:04:29;;;;;;;3.65;1.15;;;;;;;;;;6214861;28;20465;-87
2023/12/30 06:07:31;;;;;;;7.93;1.20;;;;;;;;;;6203542;28;20425;-86
2023/12/30 06:10:33;;;;;;;9.43;1.27;;;;;;;;;;6216699;28;20056;-85
2023/12/30 06:13:35;;;;;;;4.82;0.95;;;;;;;;;;6208972;28;20129;-85
2023/12/30 06:16:38;;;;;;;4.77;1.57;;;;;;;;;;6215486;28;20107;-85
2023/12/30 06:19:40;;;;;;;4.07;1.30;;;;;;;;;;6225931;28;20045;-86
2023/12/30 06:22:42;;;;;;;7.80;1.90;;;;;;;;;;6215749;28;20033;-85
2023/12/30 06:25:44;;;;;;;5.80;1.58;;;;;;;;;;6226936;28;20076;-85
2023/12/30 06:28:46;;;;;;;6.50;1.50;;;;;;;;;;6223038;28;20113;-85
2023/12/30 06:31:51;;;;;;;4.35;1.30;;;;;;;;;;6219118;28;20245;-86
2023/12/30 06:34:55;;;;;;;7.82;1.17;;;;;;;;;;6194973;28;20076;-86
2023/12/30 06:38:00;;;;;;;1.80;1.25;;;;;;;;;;6210596;28;20039;-86
2023/12/30 06:41:06;;;;;;;4.15;1.27;;;;;;;;;;6206871;28;20064;-85
2023/12/30 06:44:08;;;;;;;4.80;1.55;;;;;;;;;;6204594;28;20155;-86
2023/12/30 06:47:12;;;;;;;4.73;1.40;;;;;;;;;;6207872;28;20167;-86
2023/12/30 06:50:15;;;;;;;;;;;;;;;;;;6210808;28;20072;-86
2023/12/30 06:53:19;;;;;;;3.17;1.15;;;;;;;;;;6214988;28;19996;-85
2023/12/30 06:56:21;;;;;;;4.70;1.30;;;;;;;;;;6186048;28;20046;-85
2023/12/30 06:59:25;;;;;;;4.22;1.10;;;;;;;;;;6201549;28;20061;-85
2023/12/30 07:02:27;;;;;;;5.07;1.13;;;;;;;;;;6189181;28;20466;-85
2023/12/30 07:05:35;;;;;;;5.90;1.00;;;;;;;;;;6236568;28;20049;-85
2023/12/30 07:08:38;;;;;;;5.22;1.00;;;;;;;;;;6196741;28;20046;-86
2023/12/30 07:11:40;;;;;;;2.80;0.80;;;;;;;;;;6199692;28;20049;-88
2023/12/30 07:14:43;;;;;;;2.50;0.98;;;;;;;;;;6214564;28;20431;-86
2023/12/30 07:17:47;;;;;;;4.75;1.10;;;;;;;;;;6204430;28;20049;-87
2023/12/30 07:20:49;;;;;;;4.53;0.88;;;;;;;;;;6214434;28;20068;-91
2023/12/30 07:23:51;;;;;;;4.90;0.80;;;;;;;;;;6213355;28;20069;-89
2023/12/30 07:26:55;;;;;;;3.13;0.73;;;;;;;;;;6200185;28;20054;-88
2023/12/30 07:30:00;;;;;;;3.78;1.00;;;;;;;;;;6182235;28;20034;-87
2023/12/30 07:33:02;;;;;;;5.65;0.73;;;;;;;;;;6193819;28;20048;-86
2023/12/30 07:36:08;;;;;;;4.65;0.80;;;;;;;;;;6207559;28;20038;-86
2023/12/30 07:39:10;;;;;;;1.48;0.52;;;;;;;;;;6151144;28;20050;-86
2023/12/30 07:42:12;;;;;;;5.95;1.00;;;;;;;;;;6189323;28;20409;-88
2023/12/30 07:45:16;;;;;;;3.75;0.98;;;;;;;;;;6218042;28;20389;-87
2023/12/30 07:48:20;;;;;;;5.80;0.90;;;;;;;;;;6187019;28;20044;-87
2023/12/30 07:51:23;;;;;;;2.63;0.98;;;;;;;;;;6182180;28;20405;-87
2023/12/30 07:54:28;;;;;;;5.28;0.90;;;;;;;;;;6212925;28;20136;-87
2023/12/30 07:57:30;;;;;;;3.83;0.90;;;;;;;;;;6195244;28;20041;-87
2023/12/30 08:00:33;;;;;;;4.47;0.97;;;;;;;;;;6182790;28;20525;-88
2023/12/30 08:03:35;;;;;;;5.10;0.95;;;;;;;;;;6220192;28;20075;-87
2023/12/30 08:06:42;;;;;;;1.75;0.90;;;;;;;;;;6181198;28;20065;-86
2023/12/30 08:09:44;;;;;;;4.63;1.20;;;;;;;;;;6170990;28;20046;-86
2023/12/30 08:12:46;;;;;;;4.90;1.00;;;;;;;;;;6198702;28;20045;-87
2023/12/30 08:15:49;;;;;;;4.15;0.68;;;;;;;;;;6206499;28;20050;-89
2023/12/30 08:18:51;;;;;;;4.78;0.88;;;;;;;;;;6183934;28;20053;-87
2023/12/30 08:21:53;;;;;;;6.30;0.95;;;;;;;;;;6211362;28;20133;-89
2023/12/30 08:24:55;;;;;;;1.90;0.70;;;;;;;;;;6222399;28;20049;-87
2023/12/30 08:27:59;;;;;;;6.40;1.90;;;;;;;;;;6230467;28;20120;-86
2023/12/30 08:31:04;;;;;;;5.25;2.20;;;;;;;;;;6218797;28;20042;-87
2023/12/30 08:34:06;;;;;;;4.00;1.60;;;;;;;;;;6197303;28;20043;-87
2023/12/30 08:37:11;;;;;;;4.85;1.15;;;;;;;;;;6192023;28;20394;-86
2023/12/30 08:40:14;;;;;;;5.68;1.15;;;;;;;;;;6195095;28;20050;-86
2023/12/30 08:43:17;;;;;;;3.70;1.08;;;;;;;;;;6197967;28;20049;-87
2023/12/30 08:46:22;;;;;;;4.93;1.08;;;;;;;;;;6206681;28;20045;-87
2023/12/30 08:49:27;;;;;;;2.35;1.27;;;;;;;;;;6199136;28;26454;-88
2023/12/30 08:52:29;;;;;;;5.43;1.23;;;;;;;;;;6197748;28;20050;-87
2023/12/30 08:55:31;;;;;;;6.93;1.10;;;;;;;;;;6197503;28;20073;-87
2023/12/30 08:58:33;;;;;;;1.48;0.90;;;;;;;;;;6214231;28;20038;-87
2023/12/30 09:01:35;;;;;;;4.38;0.95;;;;;;;;;;6250942;28;20072;-88
2023/12/30 09:04:37;;;;;;;5.20;1.17;;;;;;;;;;6258196;28;20049;-86
2023/12/30 09:07:39;;;;;;;4.63;1.40;;;;;;;;;;6242074;28;20045;-86
2023/12/30 09:10:41;;;;;;;3.53;1.03;;;;;;;;;;6232571;28;20045;-86
2023/12/30 09:13:43;;;;;;;2.72;1.08;;;;;;;;;;6207485;28;20092;-86
2023/12/30 09:16:48;;;;;;;4.50;1.25;;;;;;;;;;6201030;28;20403;-86
2023/12/30 09:19:50;;;;;;;3.50;1.00;;;;;;;;;;6212918;28;20440;-86
2023/12/30 09:22:52;;;;;;;2.80;1.30;;;;;;;;;;6206102;28;20040;-86
2023/12/30 09:25:54;;;;;;;6.22;1.17;;;;;;;;;;6201408;28;20240;-87
2023/12/30 09:28:56;;;;;;;3.60;1.02;;;;;;;;;;6215242;28;20042;-86
2023/12/30 09:31:58;;;;;;;4.30;1.00;;;;;;;;;;6216626;28;20732;-86
2023/12/30 09:35:03;;;;;;;3.42;1.23;;;;;;;;;;6206455;28;20041;-86
2023/12/30 09:38:05;;;;;;;2.92;1.00;;;;;;;;;;6202915;28;20049;-85
2023/12/30 09:41:07;;;;;;;4.57;1.15;;;;;;;;;;6210888;28;20485;-87
2023/12/30 09:44:12;;;;;;;6.20;1.67;;;;;;;;;;6205768;28;20077;-87
2023/12/30 09:47:17;;;;;;;8.77;1.27;;;;;;;;;;6203373;28;20041;-87
2023/12/30 09:50:19;;;;;;;2.97;0.93;;;;;;;;;;6186662;28;20060;-87
2023/12/30 09:53:22;;;;;;;4.50;1.15;;;;;;;;;;6213887;28;20126;-87
2023/12/30 09:56:27;;;;;;;4.03;1.23;;;;;;;;;;6208445;28;20050;-87
2023/12/30 09:59:35;;;;;;;3.67;1.00;;;;;;;;;;6190248;28;20425;-88
2023/12/30 10:02:38;;;;;;;5.53;1.17;;;;;;;;;;6200359;28;20049;-87
2023/12/30 10:05:40;;;;;;;6.30;1.13;;;;;;;;;;6197113;28;20247;-88
2023/12/30 10:08:43;;;;;;;3.80;1.20;;;;;;;;;;6197729;28;20445;-87
2023/12/30 10:11:47;;;;;;;11.03;1.20;;;;;;;;;;6197468;28;20061;-87
2023/12/30 10:14:49;;;;;;;7.45;1.45;;;;;;;;;;6205755;28;20500;-87
2023/12/30 10:17:51;;;;;;;4.95;1.48;;;;;;;;;;6206099;28;20188;-88
2023/12/30 10:20:53;;;;;;;7.53;1.38;;;;;;;;;;6207504;28;20199;-86
2023/12/30 10:23:58;;;;;;;8.15;1.10;;;;;;;;;;6208169;28;20046;-87
2023/12/30 10:27:04;;;;;;;4.22;1.00;;;;;;;;;;6199090;28;20528;-87
2023/12/30 10:30:08;;;;;;;3.85;1.10;;;;;;;;;;6185424;28;20474;-87
2023/12/30 10:33:12;;;;;;;4.18;1.20;;;;;;;;;;6197795;28;20129;-87
2023/12/30 10:36:17;;;;;;;4.50;0.90;;;;;;;;;;6208879;28;20049;-87
2023/12/30 10:39:22;;;;;;;5.75;1.00;;;;;;;;;;6217177;28;20049;-90
2023/12/30 10:42:24;;;;;;;5.72;1.35;;;;;;;;;;6229737;28;20096;-86
2023/12/30 10:45:26;;;;;;;3.72;1.10;;;;;;;;;;6215867;28;20825;-87
2023/12/30 10:48:33;;;;;;;3.75;1.00;;;;;;;;;;6207780;28;20061;-88
2023/12/30 10:51:39;;;;;;;5.97;1.17;;;;;;;;;;6225816;28;20069;-86
2023/12/30 10:54:47;;;;;;;6.07;1.00;;;;;;;;;;6197214;28;20484;-86
2023/12/30 10:58:17;;;;;;;6.30;1.02;;;;;;;;;;6209313;28;20126;-87
2023/12/30 11:01:20;;;;;;;5.88;1.63;;;;;;;;;;6227624;28;20408;-88
2023/12/30 11:04:25;;;;;;;5.13;1.58;;;;;;;;;;6212430;28;20140;-87
2023/12/30 11:07:28;;;;;;;4.38;1.42;;;;;;;;;;6213746;28;20058;-87
2023/12/30 11:10:32;;;;;;;8.10;1.50;;;;;;;;;;6190083;28;20523;-87
2023/12/30 11:13:36;;;;;;;3.67;0.98;;;;;;;;;;6190175;28;20620;-85
2023/12/30 11:16:38;;;;;;;6.38;1.58;;;;;;;;;;6209188;28;20052;-87
2023/12/30 11:19:40;;;;;;;5.32;1.20;;;;;;;;;;6210027;28;20052;-87
2023/12/30 11:22:43;;;;;;;4.72;0.98;;;;;;;;;;6197857;28;20049;-88
2023/12/30 11:25:46;;;;;;;6.05;1.33;;;;;;;;;;6220332;28;20048;-87
2023/12/30 11:28:49;;;;;;;;;;;;;;;;;;6219759;28;20273;-87
2023/12/30 11:31:57;;;;;;;3.25;1.08;;;;;;;;;;6211726;28;19925;-87
2023/12/30 11:34:59;;;;;;;5.18;1.25;;;;;;;;;;6181646;28;20053;-88
2023/12/30 11:38:08;;;;;;;3.65;1.15;;;;;;;;;;6219958;28;20069;-86
2023/12/30 11:41:11;;;;;;;1.73;0.70;;;;;;;;;;6211990;28;20120;-87
2023/12/30 11:44:14;;;;;;;7.70;1.30;;;;;;;;;;6195343;28;20099;-86
2023/12/30 11:47:23;;;;;;;4.65;1.30;;;;;;;;;;6221862;28;20042;-86
2023/12/30 11:50:25;;;;;;;7.05;1.55;;;;;;;;;;6187232;28;20065;-87
2023/12/30 11:53:32;;;;;;;4.27;1.37;;;;;;;;;;6187737;28;20056;-88
2023/12/30 11:56:35;;;;;;;3.03;0.95;;;;;;;;;;6177039;28;20479;-88
2023/12/30 11:59:38;;;;;;;6.15;1.10;;;;;;;;;;6194070;28;20049;-89
2023/12/30 12:02:40;;;;;;;6.57;0.90;;;;;;;;;;6199664;28;20330;-86
2023/12/30 12:05:44;;;;;;;5.28;1.33;;;;;;;;;;6197541;28;20113;-85
2023/12/30 12:08:47;;;;;;;3.75;1.02;;;;;;;;;;6203955;28;20408;-86
2023/12/30 12:11:49;;;;;;;4.35;0.95;;;;;;;;;;6200484;28;20509;-88
2023/12/30 12:14:52;;;;;;;4.00;1.13;;;;;;;;;;6200644;28;20114;-89
2023/12/30 12:17:58;;;;;;;5.22;0.88;;;;;;;;;;6219202;28;20041;-88
2023/12/30 12:21:03;;;;;;;3.40;0.80;;;;;;;;;;6234165;28;20043;-89
2023/12/30 12:24:06;;;;;;;2.90;0.93;;;;;;;;;;6195514;28;20041;-88
2023/12/30 12:27:08;;;;;;;5.17;1.00;;;;;;;;;;6201585;28;20140;-90
2023/12/30 12:30:10;;;;;;;6.25;1.08;;;;;;;;;;6193042;28;20061;-88
2023/12/30 12:33:17;;;;;;;4.72;1.10;;;;;;;;;;6172629;28;20042;-88
2023/12/30 12:36:19;;;;;;;7.38;1.08;;;;;;;;;;6202303;28;20048;-88
2023/12/30 12:39:22;;;;;;;2.90;1.00;;;;;;;;;;6196738;28;20163;-88
2023/12/30 12:42:25;;;;;;;5.90;0.80;;;;;;;;;;6201221;28;20412;-87
2023/12/30 12:45:32;;;;;;;2.85;0.70;;;;;;;;;;6185440;28;20041;-86
2023/12/30 12:48:34;;;;;;;6.97;1.17;;;;;;;;;;6190282;28;20516;-86
2023/12/30 12:51:39;;;;;;;5.67;1.00;;;;;;;;;;6193278;28;20049;-87
2023/12/30 12:54:48;;;;;;;6.63;0.93;;;;;;;;;;6189126;28;20048;-89
2023/12/30 12:57:53;;;;;;;5.88;1.15;;;;;;;;;;6201536;28;20112;-88
2023/12/30 13:00:55;;;;;;;6.82;1.10;;;;;;;;;;6208641;28;20046;-89
2023/12/30 13:03:58;;;;;;;4.68;1.30;;;;;;;;;;6192205;28;20075;-89
2023/12/30 13:07:01;;;;;;;4.00;0.90;;;;;;;;;;6192606;28;20049;-88
2023/12/30 13:10:34;;;;;;;2.60;0.80;;;;;;;;;;6195955;28;20042;-87
2023/12/30 13:13:31;;;;;;;5.72;1.10;;;;;;;;;;6198827;28;20501;-89
2023/12/30 13:16:34;;;;;;;4.88;0.90;;;;;;;;;;6174511;28;20465;-88
2023/12/30 13:19:36;;;;;;;4.80;1.10;;;;;;;;;;6211646;28;20048;-88
2023/12/30 13:22:41;;;;;;;5.22;1.10;;;;;;;;;;6181918;28;20050;-90
2023/12/30 13:25:43;;;;;;;10.50;4.63;;;;;;;;;;6175077;28;20524;-88
2023/12/30 13:28:46;;;;;;;1.30;0.82;;;;;;;;;;6197110;28;20042;-87
2023/12/30 13:31:48;;;;;;;2.72;0.80;;;;;;;;;;6199968;28;20045;-87
2023/12/30 13:34:53;;;;;;;3.70;0.90;;;;;;;;;;6197541;28;20421;-87
2023/12/30 13:37:59;;;;;;;3.78;1.00;;;;;;;;;;6189775;28;20444;-87
2023/12/30 13:41:04;;;;;;;3.53;0.90;;;;;;;;;;6205995;28;20308;-86
2023/12/30 13:44:12;;;;;;;4.95;0.90;;;;;;;;;;6196991;28;20046;-89
2023/12/30 13:50:37;;;;;;;4.38;1.08;;;;;;;;;;6208965;28;20646;-88
2023/12/30 13:53:46;;;;;;;;;;;;;;;;;;6213250;28;20124;-88
2023/12/30 13:57:00;;;;;;;3.55;0.63;;;;;;;;;;6204380;28;19913;-88
2023/12/30 14:00:06;;;;;;;2.97;0.95;;;;;;;;;;6213505;28;20344;-89
2023/12/30 14:03:09;;;;;;;2.65;0.77;;;;;;;;;;6204599;28;20522;-87
2023/12/30 14:06:18;;;;;;;4.32;0.82;;;;;;;;;;6193653;28;20052;-87
2023/12/30 14:09:54;;;;;;;3.45;1.15;;;;;;;;;;6200299;28;20444;-87
2023/12/30 14:12:49;;;;;;;12.35;3.67;;;;;;;;;;6195504;28;20061;-88
2023/12/30 14:15:51;;;;;;;3.58;0.80;;;;;;;;;;6229402;28;20555;-87
2023/12/30 14:18:53;;;;;;;4.07;1.00;;;;;;;;;;6206299;28;20052;-85
2023/12/30 14:21:58;;;;;;;3.83;0.85;;;;;;;;;;6179787;28;20049;-88
2023/12/30 14:25:04;;;;;;;5.95;1.00;;;;;;;;;;6184725;28;20045;-88
2023/12/30 14:28:12;;;;;;;4.22;0.70;;;;;;;;;;6185136;28;20115;-89
2023/12/30 14:31:15;;;;;;;3.50;0.77;;;;;;;;;;6206947;28;20073;-87
2023/12/30 14:34:17;;;;;;;3.20;1.05;;;;;;;;;;6198784;28;20049;-88
2023/12/30 14:37:19;;;;;;;1.27;0.63;;;;;;;;;;6178948;28;20046;-87
2023/12/30 14:40:22;;;;;;;4.13;1.10;;;;;;;;;;6185466;28;20299;-88
2023/12/30 14:43:24;;;;;;;4.47;0.80;;;;;;;;;;6193493;28;20045;-89
2023/12/30 14:46:31;;;;;;;3.55;0.85;;;;;;;;;;6209219;28;20184;-88
2023/12/30 14:49:33;;;;;;;5.05;1.60;;;;;;;;;;6198827;28;20094;-86
2023/12/30 14:52:38;;;;;;;2.65;0.90;;;;;;;;;;6214698;28;20119;-88
2023/12/30 14:55:40;;;;;;;3.67;1.00;;;;;;;;;;6191339;28;20061;-88
2023/12/30 14:58:42;;;;;;;3.88;1.20;;;;;;;;;;6198909;28;20527;-88
2023/12/30 15:01:44;;;;;;;4.03;2.20;;;;;;;;;;6208407;28;20603;-89
2023/12/30 15:04:46;;;;;;;4.00;1.60;;;;;;;;;;6188493;28;20151;-84
2023/12/30 15:07:51;;;;;;;2.97;1.33;;;;;;;;;;6213216;28;20050;-89
2023/12/30 15:10:58;;;;;;;4.82;1.65;;;;;;;;;;6199170;28;20041;-89
2023/12/30 15:14:01;;;;;;;5.27;1.63;;;;;;;;;;6191111;28;20037;-89
2023/12/30 15:17:03;;;;;;;;;;;;;;;;;;6205224;28;20053;-89
2023/12/30 15:20:07;;;;;;;5.18;1.25;;;;;;;;;;6213274;28;19988;-89
2023/12/30 15:23:10;;;;;;;4.50;1.45;;;;;;;;;;6186964;28;20103;-91
2023/12/30 15:26:12;;;;;;;3.22;1.10;;;;;;;;;;6197862;28;20133;-89
2023/12/30 15:29:14;;;;;;;5.57;1.75;;;;;;;;;;6191304;28;20065;-88
2023/12/30 15:32:22;;;;;;;4.22;1.23;;;;;;;;;;6175899;28;20142;-89
2023/12/30 15:35:25;;;;;;;3.05;1.00;;;;;;;;;;6110371;28;20538;-89
2023/12/30 15:38:38;;;;;;;3.38;1.38;;;;;;;;;;6169190;28;20041;-92
2023/12/30 15:41:42;;;;;;;5.15;1.55;;;;;;;;;;6154718;28;20052;-92
2023/12/30 15:44:44;;;;;;;5.70;1.52;;;;;;;;;;6159068;28;20046;-90
2023/12/30 15:47:49;;;;;;;9.52;3.88;;;;;;;;;;6164025;28;20418;-90
2023/12/30 15:50:54;;;;;;;8.77;4.35;;;;;;;;;;6189357;28;20046;-90
2023/12/30 15:53:58;;;;;;;33.08;13.75;;;;;;;;;;6201906;28;20392;-90
2023/12/30 15:57:01;;;;;;;35.28;15.48;;;;;;;;;;6201904;28;20089;-90
2023/12/30 16:00:06;;;;;;;17.70;10.13;;;;;;;;;;6200226;28;20042;-91
2023/12/30 16:03:08;;;;;;;7.82;4.07;;;;;;;;;;6189293;28;20049;-89
2023/12/30 16:06:13;;;;;;;12.98;7.05;;;;;;;;;;6204811;28;20136;-91
2023/12/30 16:09:15;;;;;;;12.73;6.10;;;;;;;;;;6191504;28;20049;-91
2023/12/30 16:12:18;;;;;;;76.53;44.35;;;;;;;;;;6191820;28;20049;-89
2023/12/30 16:15:21;;;;;;;23.27;14.77;;;;;;;;;;6191773;28;20053;-89
2023/12/30 16:18:24;;;;;;;;;;;;;;;;;;6186071;28;20061;-90
2023/12/30 16:21:28;;;;;;;21.63;11.80;;;;;;;;;;6200283;28;19925;-88
2023/12/30 16:24:31;;;;;;;20.73;10.80;;;;;;;;;;6191551;28;20079;-90
2023/12/30 16:27:35;;;;;;;18.13;10.02;;;;;;;;;;6193218;28;20050;-90
2023/12/30 16:30:38;;;;;;;17.30;10.07;;;;;;;;;;6216525;28;20161;-88
2023/12/30 16:33:40;;;;;;;20.33;10.88;;;;;;;;;;6234836;28;20068;-88
2023/12/30 16:36:43;;;;;;;20.75;11.77;;;;;;;;;;6218404;28;20053;-89
2023/12/30 16:39:46;;;;;;;21.52;11.48;;;;;;;;;;6174202;28;20121;-90
2023/12/30 16:42:53;;;;;;;19.65;11.05;;;;;;;;;;6217320;28;20044;-88
2023/12/30 16:45:55;;;;;;;20.08;11.90;;;;;;;;;;6206299;28;20041;-88
2023/12/30 16:48:57;;;;;;;18.00;10.90;;;;;;;;;;6207588;28;20042;-88
2023/12/30 16:51:59;;;;;;;7.75;4.20;;;;;;;;;;6197618;28;20049;-87
2023/12/30 16:55:19;;;;;;;15.30;6.93;;;;;;;;;;6202535;28;20046;-88
2023/12/30 16:58:32;;;;;;;7.93;5.03;;;;;;;;;;6181345;28;20501;-88
2023/12/30 17:01:34;;;;;;;10.73;5.65;;;;;;;;;;6183448;28;20528;-90
2023/12/30 17:04:37;;;;;;;19.13;8.75;;;;;;;;;;6195448;28;20473;-88
2023/12/30 17:07:40;;;;;;;31.42;15.80;;;;;;;;;;6163890;28;20042;-88
2023/12/30 17:10:43;;;;;;;30.90;18.80;;;;;;;;;;6179740;28;20665;-88
2023/12/30 17:13:48;;;;;;;;;;;;;;;;;;6178713;28;20194;-88
2023/12/30 17:16:57;;;;;;;36.40;20.65;;;;;;;;;;6166074;28;20273;-89
2023/12/30 17:20:00;;;;;;;194.15;63.83;;;;;;;;;;6181975;28;20053;-88
2023/12/30 17:23:05;;;;;;;34.67;17.85;;;;;;;;;;6230479;28;20049;-89
2023/12/30 17:26:07;;;;;;;42.33;22.75;;;;;;;;;;6223238;28;20038;-90
2023/12/30 17:29:10;;;;;;;53.75;28.83;;;;;;;;;;6204435;28;20099;-88
2023/12/30 17:32:12;;;;;;;38.97;19.13;;;;;;;;;;6187024;28;20046;-88
2023/12/30 17:35:20;;;;;;;25.67;14.25;;;;;;;;;;6186708;28;20069;-89
2023/12/30 17:38:24;;;;;;;24.75;11.95;;;;;;;;;;6206134;28;20045;-87
2023/12/30 17:41:26;;;;;;;22.27;11.10;;;;;;;;;;6200163;28;20128;-87
2023/12/30 17:44:31;;;;;;;16.35;9.60;;;;;;;;;;6211569;28;20058;-87
2023/12/30 17:47:34;;;;;;;17.45;10.25;;;;;;;;;;6209050;28;20044;-87
2023/12/30 17:50:36;;;;;;;15.55;9.50;;;;;;;;;;6209007;28;20050;-88
2023/12/30 17:53:38;;;;;;;29.65;15.32;;;;;;;;;;6203329;28;20046;-88
2023/12/30 17:56:50;;;;;;;29.80;13.95;;;;;;;;;;6161843;28;20058;-88
2023/12/30 18:00:04;;;;;;;23.77;11.00;;;;;;;;;;6121765;28;20052;-88
2023/12/30 18:03:09;;;;;;;9.85;5.38;;;;;;;;;;6193680;28;20519;-88
2023/12/30 18:06:12;;;;;;;11.65;6.05;;;;;;;;;;6208958;28;20471;-87
2023/12/30 18:09:13;;;;;;;31.35;16.15;;;;;;;;;;6222529;28;20116;-89
2023/12/30 18:12:15;;;;;;;9.30;4.00;;;;;;;;;;6210783;28;20053;-86
2023/12/30 18:15:18;;;;;;;11.15;3.70;;;;;;;;;;6207723;28;20053;-87
2023/12/30 18:18:20;;;;;;;4.45;2.15;;;;;;;;;;6194002;28;20042;-87
2023/12/30 18:21:22;;;;;;;5.57;1.80;;;;;;;;;;6213899;28;20224;-87
2023/12/30 18:24:27;;;;;;;5.32;2.40;;;;;;;;;;6191059;28;20505;-88